Terminal Aerodrome Forecast
Issued by NWS North Platte, NE

Home | Current Version | Previous Version | Text Only | Print | Product List | Glossary On
Versions: 1 2 3 4 5 6 7 8 9 10 11 12 13 14
000
FTUS43 KLBF 301120
TAFVTN
TAF
KVTN 301120Z 3012/0112 16009KT P6SM FEW250
     FM301500 17013G19KT P6SM SCT200
     FM010000 15009KT P6SM BKN200=

USA.gov is the U.S. government's official web portal to all federal, state and local government web resources and services.